CheckWX is a tool to help pilots better visualize weather data.  It is not intended as a substitute for an official pre-flight weather briefing.

18:06:25 UTC

KCIN METAR
Arthur N Neu Airport
Carroll, Iowa, USA
Current

11 mins ago

KCIN 211755Z AUTO 02008KT 10SM BKN016 BKN020 OVC065 22/19 A3005 RMK AO2
Observed
Jul-21 @ 17:55 UTC
Wind
  • 020° at 8 KTS
Visibility
10 SM
Flight Rules
MVFR
Cloud Levels
  • Broken at 1,600' AGL
  • Broken at 2,000' AGL
  • Overcast at 6,500' AGL
Temperature
22°C / 72°F
Dewpoint
19°C / 66°F
Humidity
83%
Altimeter
30.05" Hg
Pressure
1017.62 hPa
Previous

31 mins ago

KCIN 211735Z AUTO 36008KT 10SM BKN016 OVC060 21/19 A3005 RMK AO2
Observed
Jul-21 @ 17:35 UTC
Wind
  • 360° at 8 KTS
Visibility
10 SM
Flight Rules
MVFR
Cloud Levels
  • Broken at 1,600' AGL
  • Overcast at 6,000' AGL
Temperature
21°C / 70°F
Dewpoint
19°C / 66°F
Humidity
88%
Altimeter
30.05" Hg
Pressure
1017.62 hPa
Previous

51 mins ago

KCIN 211715Z AUTO 01004KT 10SM BKN015 21/19 A3005 RMK AO2
Observed
Jul-21 @ 17:15 UTC
Wind
  • 010° at 4 KTS
Visibility
10 SM
Flight Rules
MVFR
Cloud Levels
  • Broken at 1,500' AGL
Temperature
21°C / 70°F
Dewpoint
19°C / 66°F
Humidity
88%
Altimeter
30.05" Hg
Pressure
1017.62 hPa